Time;durP1;ratioP1;P1;durP2;ratioP2;P2;SDS_P1;SDS_P2;PMS_P1;PMS_P2;Temp;Humidity;BMP_temperature;BMP_pressure;BME280_temperature;BME280_humidity;BME280_pressure;Samples;Min_cycle;Max_cycle;Signal;HPM_P1;HPM_P2
2021/03/28 00:02:59;;;;;;;6.13;1.80;;;;;;;;;;6221346;23;20191;-88
2021/03/28 00:06:12;;;;;;;7.40;2.40;;;;;;;;;;6220984;23;20171;-87
2021/03/28 00:09:18;;;;;;;8.13;2.30;;;;;;;;;;6221683;23;20249;-87
2021/03/28 00:12:31;;;;;;;9.87;2.53;;;;;;;;;;6221241;23;20198;-87
2021/03/28 00:15:38;;;;;;;13.00;2.27;;;;;;;;;;6220865;23;20562;-87
2021/03/28 00:18:53;;;;;;;6.13;2.20;;;;;;;;;;6221627;23;20191;-88
2021/03/28 00:21:59;;;;;;;7.87;1.87;;;;;;;;;;6219902;23;20190;-87
2021/03/28 00:25:10;;;;;;;8.33;1.87;;;;;;;;;;6220482;23;20174;-85
2021/03/28 00:28:27;;;;;;;5.77;1.60;;;;;;;;;;6220008;23;20174;-88
2021/03/28 00:31:33;;;;;;;6.97;1.80;;;;;;;;;;6219747;23;20192;-86
2021/03/28 00:34:40;;;;;;;8.80;1.83;;;;;;;;;;6220600;23;20167;-86
2021/03/28 00:37:46;;;;;;;5.87;1.80;;;;;;;;;;6220421;23;20170;-87
2021/03/28 00:41:08;;;;;;;4.27;1.47;;;;;;;;;;6220450;23;20183;-88
2021/03/28 00:44:15;;;;;;;8.57;1.70;;;;;;;;;;6219916;23;20179;-86
2021/03/28 00:47:22;;;;;;;6.83;1.27;;;;;;;;;;6220287;23;20171;-88
2021/03/28 00:50:34;;;;;;;6.37;1.80;;;;;;;;;;6220153;23;20245;-86
2021/03/28 00:53:43;;;;;;;5.17;1.87;;;;;;;;;;6218770;23;20606;-87
2021/03/28 00:56:49;;;;;;;6.53;1.80;;;;;;;;;;6219223;23;20183;-88
2021/03/28 01:00:12;;;;;;;6.37;2.20;;;;;;;;;;6219448;23;20239;-87
2021/03/28 01:03:32;;;;;;;11.37;2.07;;;;;;;;;;6220384;23;20172;-86
2021/03/28 01:06:43;;;;;;;7.23;1.80;;;;;;;;;;6219895;23;20171;-87
2021/03/28 01:10:11;;;;;;;6.87;2.03;;;;;;;;;;6219233;23;20242;-88
2021/03/28 01:13:49;;;;;;;6.37;2.03;;;;;;;;;;6164162;23;20190;-87
2021/03/28 01:17:16;;;;;;;4.90;1.80;;;;;;;;;;6083572;23;20625;-87
2021/03/28 01:20:38;;;;;;;8.43;2.83;;;;;;;;;;6095708;23;20166;-87
2021/03/28 01:23:45;;;;;;;7.07;2.10;;;;;;;;;;6220564;23;20498;-87
2021/03/28 01:26:57;;;;;;;5.43;2.20;;;;;;;;;;6220862;23;20174;-88
2021/03/28 01:30:06;;;;;;;5.30;1.80;;;;;;;;;;6219463;23;20235;-87
2021/03/28 01:33:14;;;;;;;7.80;2.30;;;;;;;;;;6220195;23;20214;-88
2021/03/28 01:36:23;;;;;;;4.40;1.60;;;;;;;;;;6217191;23;20191;-87
2021/03/28 01:39:31;;;;;;;10.30;1.83;;;;;;;;;;6219901;23;20214;-87
2021/03/28 01:42:47;;;;;;;6.37;1.70;;;;;;;;;;6220083;23;20413;-87
2021/03/28 01:45:54;;;;;;;9.23;1.73;;;;;;;;;;6219738;23;20183;-86
2021/03/28 01:49:00;;;;;;;7.33;1.87;;;;;;;;;;6219100;23;20186;-88
2021/03/28 01:52:08;;;;;;;7.57;2.00;;;;;;;;;;6219610;23;20168;-87
2021/03/28 01:55:15;;;;;;;7.80;1.97;;;;;;;;;;6219985;22;20183;-86
2021/03/28 01:58:26;;;;;;;9.57;2.57;;;;;;;;;;6220462;23;20166;-88
2021/03/28 02:01:39;;;;;;;7.90;2.53;;;;;;;;;;6220539;23;20167;-87
2021/03/28 02:04:49;;;;;;;8.87;2.53;;;;;;;;;;6220510;23;20171;-87
2021/03/28 02:07:57;;;;;;;8.33;2.40;;;;;;;;;;6220420;23;20550;-86
2021/03/28 02:11:10;;;;;;;6.77;2.07;;;;;;;;;;6220370;23;20194;-87
2021/03/28 02:14:25;;;;;;;8.03;2.67;;;;;;;;;;6219874;23;20214;-88
2021/03/28 02:17:34;;;;;;;6.63;2.40;;;;;;;;;;6220327;23;20547;-87
2021/03/28 02:20:42;;;;;;;4.13;1.70;;;;;;;;;;6219110;23;20190;-87
2021/03/28 02:23:50;;;;;;;5.63;2.00;;;;;;;;;;6220416;23;20171;-88
2021/03/28 02:27:03;;;;;;;4.87;1.70;;;;;;;;;;6218928;23;20699;-88
2021/03/28 02:30:11;;;;;;;7.70;1.57;;;;;;;;;;6219448;23;20194;-86
2021/03/28 02:33:19;;;;;;;7.90;1.80;;;;;;;;;;6218978;23;20267;-87
2021/03/28 02:36:27;;;;;;;7.63;1.70;;;;;;;;;;6202196;23;20222;-86
2021/03/28 02:39:39;;;;;;;5.77;1.93;;;;;;;;;;6218406;23;20558;-88
2021/03/28 02:42:54;;;;;;;6.03;1.63;;;;;;;;;;6219384;23;20773;-86
2021/03/28 02:46:14;;;;;;;7.70;2.00;;;;;;;;;;6218933;23;20174;-89
2021/03/28 02:49:34;;;;;;;17.47;2.53;;;;;;;;;;6218810;23;20167;-87
2021/03/28 02:52:45;;;;;;;9.23;1.97;;;;;;;;;;6218215;23;20544;-88
2021/03/28 02:55:59;;;;;;;9.13;1.83;;;;;;;;;;6201653;23;20171;-88
2021/03/28 02:59:18;;;;;;;8.03;1.67;;;;;;;;;;6221004;23;20195;-89
2021/03/28 03:02:39;;;;;;;4.90;1.60;;;;;;;;;;6202351;23;20547;-87
2021/03/28 03:05:50;;;;;;;8.60;1.60;;;;;;;;;;6201885;23;20661;-87
2021/03/28 03:09:08;;;;;;;8.47;1.60;;;;;;;;;;6202736;23;20186;-87
2021/03/28 03:12:27;;;;;;;7.70;1.80;;;;;;;;;;6202765;23;20646;-86
2021/03/28 03:15:36;;;;;;;11.23;2.13;;;;;;;;;;6203162;23;20666;-87
2021/03/28 03:19:03;;;;;;;8.27;1.70;;;;;;;;;;6203954;23;20175;-87
2021/03/28 03:22:29;;;;;;;5.50;1.43;;;;;;;;;;6203022;23;20234;-87
2021/03/28 03:25:53;;;;;;;7.97;1.70;;;;;;;;;;6202449;23;20214;-86
2021/03/28 03:29:13;;;;;;;7.17;1.90;;;;;;;;;;6222172;23;20218;-87
2021/03/28 03:32:36;;;;;;;6.10;1.60;;;;;;;;;;6203458;23;20488;-87
2021/03/28 03:35:45;;;;;;;15.77;1.57;;;;;;;;;;6203004;23;20191;-86
2021/03/28 03:39:07;;;;;;;4.57;1.23;;;;;;;;;;6221164;23;20175;-85
2021/03/28 03:42:19;;;;;;;11.27;1.47;;;;;;;;;;6203894;23;20166;-87
2021/03/28 03:45:41;;;;;;;7.33;1.60;;;;;;;;;;6203281;23;20167;-87
2021/03/28 03:49:01;;;;;;;10.17;1.80;;;;;;;;;;6203255;23;20611;-88
2021/03/28 03:52:11;;;;;;;7.73;2.10;;;;;;;;;;6203395;23;20215;-87
2021/03/28 03:55:19;;;;;;;9.10;1.80;;;;;;;;;;6201946;23;20207;-87
2021/03/28 03:58:28;;;;;;;8.73;1.87;;;;;;;;;;6202398;23;20622;-87
2021/03/28 04:01:38;;;;;;;8.03;1.90;;;;;;;;;;6202403;23;20163;-87
2021/03/28 04:04:57;;;;;;;5.40;1.57;;;;;;;;;;6202214;23;20705;-86
2021/03/28 04:08:10;;;;;;;7.73;1.57;;;;;;;;;;6202363;23;20167;-86
2021/03/28 04:11:20;;;;;;;8.27;1.50;;;;;;;;;;6203403;23;20195;-87
2021/03/28 04:14:34;;;;;;;8.97;1.60;;;;;;;;;;6202501;23;20175;-86
2021/03/28 04:18:03;;;;;;;6.73;1.90;;;;;;;;;;6203108;23;20697;-88
2021/03/28 04:21:13;;;;;;;7.90;1.60;;;;;;;;;;6202035;23;20194;-86
2021/03/28 04:24:25;;;;;;;5.60;1.30;;;;;;;;;;6203264;23;20203;-88
2021/03/28 04:27:54;;;;;;;7.93;1.60;;;;;;;;;;6202476;23;20657;-87
2021/03/28 04:31:16;;;;;;;5.87;1.50;;;;;;;;;;6202082;23;20271;-88
2021/03/28 04:34:23;;;;;;;7.03;1.60;;;;;;;;;;6220643;23;20174;-86
2021/03/28 04:37:31;;;;;;;5.43;1.60;;;;;;;;;;6202676;23;20222;-88
2021/03/28 04:40:55;;;;;;;7.77;1.70;;;;;;;;;;6202801;23;20175;-88
2021/03/28 04:44:24;;;;;;;5.83;1.40;;;;;;;;;;6201243;23;20294;-87
2021/03/28 04:47:43;;;;;;;7.20;1.67;;;;;;;;;;6162299;23;20269;-89
2021/03/28 04:50:59;;;;;;;7.87;1.53;;;;;;;;;;6202988;23;20191;-88
2021/03/28 04:54:23;;;;;;;7.47;1.43;;;;;;;;;;6211464;23;20182;-86
2021/03/28 04:57:35;;;;;;;12.00;1.57;;;;;;;;;;6221795;23;20174;-86
2021/03/28 05:00:52;;;;;;;8.67;1.97;;;;;;;;;;6220544;23;20163;-87
2021/03/28 05:04:11;;;;;;;9.50;1.80;;;;;;;;;;6221106;23;20220;-87
2021/03/28 05:07:33;;;;;;;6.70;2.10;;;;;;;;;;6220369;23;20227;-87
2021/03/28 05:11:05;;;;;;;7.77;1.60;;;;;;;;;;6220107;23;20257;-86
2021/03/28 05:14:29;;;;;;;5.33;1.70;;;;;;;;;;6220517;23;20267;-87
2021/03/28 05:17:51;;;;;;;11.33;2.30;;;;;;;;;;6221344;23;20180;-86
2021/03/28 05:21:14;;;;;;;7.47;2.00;;;;;;;;;;6221144;23;20167;-87
2021/03/28 05:24:36;;;;;;;10.60;1.97;;;;;;;;;;6219499;23;20175;-87
2021/03/28 05:28:08;;;;;;;5.77;1.90;;;;;;;;;;6220256;23;20174;-87
2021/03/28 05:31:30;;;;;;;10.53;2.40;;;;;;;;;;6172656;23;20219;-88
2021/03/28 05:34:50;;;;;;;4.77;1.50;;;;;;;;;;6220442;23;20622;-87
2021/03/28 05:38:09;;;;;;;8.50;1.73;;;;;;;;;;6219640;23;20543;-87
2021/03/28 05:41:25;;;;;;;11.20;2.33;;;;;;;;;;6219313;23;20167;-87
2021/03/28 05:44:39;;;;;;;13.07;2.23;;;;;;;;;;6220466;23;20163;-87
2021/03/28 05:48:01;;;;;;;9.00;2.03;;;;;;;;;;6220702;23;20255;-86
2021/03/28 05:51:25;;;;;;;6.97;1.73;;;;;;;;;;6221303;23;20211;-87
2021/03/28 05:54:48;;;;;;;9.10;2.40;;;;;;;;;;6219052;23;20695;-87
2021/03/28 05:58:03;;;;;;;5.37;2.43;;;;;;;;;;6219931;23;20651;-88
2021/03/28 06:01:14;;;;;;;7.57;2.20;;;;;;;;;;6220979;23;20639;-88
2021/03/28 06:04:34;;;;;;;8.90;2.10;;;;;;;;;;6218985;23;20187;-86
2021/03/28 06:08:08;;;;;;;9.57;2.07;;;;;;;;;;6220374;23;20179;-87
2021/03/28 06:11:42;;;;;;;8.70;2.40;;;;;;;;;;6220539;23;20190;-88
2021/03/28 06:14:48;;;;;;;12.23;2.70;;;;;;;;;;6219830;22;20214;-87
2021/03/28 06:18:07;;;;;;;6.87;2.50;;;;;;;;;;6219603;23;20510;-86
2021/03/28 06:21:28;;;;;;;7.53;2.40;;;;;;;;;;6221115;23;20187;-87
2021/03/28 06:24:51;;;;;;;5.23;2.20;;;;;;;;;;6221153;23;20210;-87
2021/03/28 06:28:13;;;;;;;6.27;2.03;;;;;;;;;;6220786;23;20518;-88
2021/03/28 06:31:43;;;;;;;8.93;2.30;;;;;;;;;;6219261;23;20528;-88
2021/03/28 06:35:07;;;;;;;11.30;2.77;;;;;;;;;;6220683;23;20290;-86
2021/03/28 06:38:42;;;;;;;7.23;2.10;;;;;;;;;;6231242;22;20643;-86
2021/03/28 06:42:00;;;;;;;9.83;2.13;;;;;;;;;;6146973;23;20255;-87
2021/03/28 06:45:22;;;;;;;9.43;2.67;;;;;;;;;;6221925;23;20214;-89
2021/03/28 06:48:51;;;;;;;8.40;2.20;;;;;;;;;;6222644;23;20176;-87
2021/03/28 06:52:15;;;;;;;10.83;2.03;;;;;;;;;;6221258;23;20191;-87
2021/03/28 06:55:34;;;;;;;6.17;1.93;;;;;;;;;;6220663;23;20239;-87
2021/03/28 06:58:57;;;;;;;9.57;2.50;;;;;;;;;;6221250;23;20672;-87
2021/03/28 07:02:20;;;;;;;6.67;2.20;;;;;;;;;;6221814;23;20171;-88
2021/03/28 07:05:34;;;;;;;9.03;2.17;;;;;;;;;;6221373;23;20171;-87
2021/03/28 07:09:07;;;;;;;4.43;2.00;;;;;;;;;;6220986;23;20199;-88
2021/03/28 07:12:18;;;;;;;9.07;2.73;;;;;;;;;;6220465;23;20891;-88
2021/03/28 07:15:30;;;;;;;6.97;2.50;;;;;;;;;;6220497;23;20226;-87
2021/03/28 07:18:39;;;;;;;9.83;2.70;;;;;;;;;;6223004;23;20218;-87
2021/03/28 07:22:06;;;;;;;12.57;2.90;;;;;;;;;;6220481;23;20211;-87
2021/03/28 07:25:29;;;;;;;9.47;2.70;;;;;;;;;;6220692;23;20511;-86
2021/03/28 07:28:52;;;;;;;7.40;2.00;;;;;;;;;;6223121;23;20234;-87
2021/03/28 07:32:15;;;;;;;7.70;2.23;;;;;;;;;;6222586;23;20721;-88
2021/03/28 07:35:30;;;;;;;9.50;2.20;;;;;;;;;;6221200;23;20174;-88
2021/03/28 07:38:52;;;;;;;8.47;2.30;;;;;;;;;;6221915;23;20254;-86
2021/03/28 07:42:12;;;;;;;9.40;2.40;;;;;;;;;;6222353;23;20618;-87
2021/03/28 07:45:32;;;;;;;10.87;2.37;;;;;;;;;;6221483;23;20568;-88
2021/03/28 07:48:50;;;;;;;7.17;2.40;;;;;;;;;;6222999;23;20315;-87
2021/03/28 07:52:20;;;;;;;7.27;2.50;;;;;;;;;;6220518;23;20238;-87
2021/03/28 07:55:25;;;;;;;10.30;2.57;;;;;;;;;;6221391;23;20729;-87
2021/03/28 07:58:35;;;;;;;9.23;2.80;;;;;;;;;;6222216;23;20171;-89
2021/03/28 08:01:45;;;;;;;7.60;2.53;;;;;;;;;;6221432;23;20194;-88
2021/03/28 08:05:12;;;;;;;9.00;2.07;;;;;;;;;;6221076;23;20550;-88
2021/03/28 08:08:27;;;;;;;8.57;2.20;;;;;;;;;;6221947;23;20776;-88
2021/03/28 08:11:39;;;;;;;8.57;2.20;;;;;;;;;;6219932;23;20674;-87
2021/03/28 08:14:52;;;;;;;9.10;2.17;;;;;;;;;;6220435;23;20501;-86
2021/03/28 08:18:08;;;;;;;8.23;2.50;;;;;;;;;;6220907;23;20251;-87
2021/03/28 08:21:31;;;;;;;7.23;2.20;;;;;;;;;;6220338;23;20207;-87
2021/03/28 08:24:53;;;;;;;6.70;2.28;;;;;;;;;;6220918;23;20218;-88
2021/03/28 08:28:17;;;;;;;6.82;2.08;;;;;;;;;;6220877;23;20239;-88
2021/03/28 08:31:23;;;;;;;10.60;2.10;;;;;;;;;;6221501;23;20267;-88
2021/03/28 08:34:46;;;;;;;7.85;2.08;;;;;;;;;;6221254;23;20178;-88
2021/03/28 08:38:00;;;;;;;7.60;2.20;;;;;;;;;;6223020;23;20206;-90
2021/03/28 08:41:18;;;;;;;4.88;1.83;;;;;;;;;;6222246;23;20163;-87
2021/03/28 08:44:37;;;;;;;8.73;1.77;;;;;;;;;;6222475;23;20214;-90
2021/03/28 08:48:00;;;;;;;8.95;1.80;;;;;;;;;;6222155;23;20191;-89
2021/03/28 08:51:20;;;;;;;4.90;1.80;;;;;;;;;;6221924;23;20273;-87
2021/03/28 08:54:33;;;;;;;10.30;2.65;;;;;;;;;;6223701;23;20562;-89
2021/03/28 08:57:43;;;;;;;4.90;2.10;;;;;;;;;;6203440;23;20267;-88
2021/03/28 09:00:51;;;;;;;6.45;2.05;;;;;;;;;;6204824;23;20166;-88
2021/03/28 09:04:02;;;;;;;6.90;2.17;;;;;;;;;;6204650;23;20178;-87
2021/03/28 09:07:13;;;;;;;7.95;2.08;;;;;;;;;;6203724;23;20191;-86
2021/03/28 09:10:25;;;;;;;7.43;2.08;;;;;;;;;;6202708;23;20654;-88
2021/03/28 09:13:47;;;;;;;11.50;2.05;;;;;;;;;;6203186;23;20183;-88
2021/03/28 09:16:56;;;;;;;7.65;2.08;;;;;;;;;;6203771;23;20246;-89
2021/03/28 09:20:12;;;;;;;6.75;2.05;;;;;;;;;;6202419;23;20218;-88
2021/03/28 09:23:22;;;;;;;8.02;2.28;;;;;;;;;;6202306;23;20183;-88
2021/03/28 09:26:30;;;;;;;4.65;1.88;;;;;;;;;;6201480;23;20506;-87
2021/03/28 09:29:44;;;;;;;6.43;1.65;;;;;;;;;;6202645;23;20174;-87
2021/03/28 09:32:55;;;;;;;6.30;2.10;;;;;;;;;;6202696;23;20167;-87
2021/03/28 09:36:18;;;;;;;7.43;2.03;;;;;;;;;;6202255;23;20167;-89
2021/03/28 09:39:37;;;;;;;6.53;2.00;;;;;;;;;;6203676;23;20208;-89
2021/03/28 09:42:52;;;;;;;5.28;2.00;;;;;;;;;;6202728;23;20166;-88
2021/03/28 09:46:15;;;;;;;7.97;1.70;;;;;;;;;;6201373;23;20941;-87
2021/03/28 09:49:33;;;;;;;8.90;2.00;;;;;;;;;;6203858;23;20167;-88
2021/03/28 09:53:01;;;;;;;6.15;1.92;;;;;;;;;;6207875;23;20167;-88
2021/03/28 09:56:25;;;;;;;6.95;1.75;;;;;;;;;;6203087;23;20171;-88
2021/03/28 09:59:33;;;;;;;5.55;1.65;;;;;;;;;;6202354;23;20175;-88
2021/03/28 10:02:48;;;;;;;6.22;1.83;;;;;;;;;;6202055;23;20175;-87
2021/03/28 10:06:01;;;;;;;5.93;1.75;;;;;;;;;;6203689;23;20182;-87
2021/03/28 10:09:12;;;;;;;5.32;1.58;;;;;;;;;;6203299;23;20167;-88
2021/03/28 10:12:22;;;;;;;6.75;2.00;;;;;;;;;;6204581;23;20195;-89
2021/03/28 10:15:27;;;;;;;5.80;1.92;;;;;;;;;;6203468;23;20626;-89
2021/03/28 10:18:50;;;;;;;9.35;2.40;;;;;;;;;;6204995;23;20191;-88
2021/03/28 10:22:06;;;;;;;6.95;1.98;;;;;;;;;;6204530;23;20187;-89
2021/03/28 10:25:18;;;;;;;5.72;1.85;;;;;;;;;;6203940;23;20234;-87
2021/03/28 10:28:42;;;;;;;6.35;1.80;;;;;;;;;;6204497;23;20174;-88
2021/03/28 10:31:57;;;;;;;6.05;1.98;;;;;;;;;;6204281;23;20206;-89
2021/03/28 10:35:19;;;;;;;4.22;1.70;;;;;;;;;;6185822;23;20171;-89
2021/03/28 10:38:33;;;;;;;5.20;1.77;;;;;;;;;;6204784;23;20665;-90
2021/03/28 10:41:42;;;;;;;6.85;2.00;;;;;;;;;;6207192;23;20211;-89
2021/03/28 10:45:12;;;;;;;4.88;1.73;;;;;;;;;;6206336;23;20218;-89
2021/03/28 10:48:31;;;;;;;4.85;1.98;;;;;;;;;;6204274;23;20827;-89
2021/03/28 10:52:00;;;;;;;5.72;1.60;;;;;;;;;;6211729;23;20187;-88
2021/03/28 10:55:19;;;;;;;7.32;1.83;;;;;;;;;;6207165;23;20171;-90
2021/03/28 14:15:25;;;;;;;5.60;2.10;;;;;;;;;;6159425;22;20372;-88
2021/03/28 14:18:32;;;;;;;3.53;1.60;;;;;;;;;;6196233;23;20180;-88
2021/03/28 14:21:38;;;;;;;6.07;2.38;;;;;;;;;;6191418;23;20260;-89
2021/03/28 14:24:44;;;;;;;8.23;2.05;;;;;;;;;;6191708;23;20172;-90
2021/03/28 14:27:48;;;;;;;4.35;1.73;;;;;;;;;;6190525;23;20195;-88
2021/03/28 14:30:59;;;;;;;6.32;2.05;;;;;;;;;;6192053;23;20498;-88
2021/03/28 14:34:22;;;;;;;7.03;2.33;;;;;;;;;;6172600;23;20187;-88
2021/03/28 14:37:57;;;;;;;15.27;2.10;;;;;;;;;;6191041;23;20269;-89
2021/03/28 14:41:11;;;;;;;7.35;2.05;;;;;;;;;;6174793;23;20240;-88
2021/03/28 14:44:41;;;;;;;6.78;1.92;;;;;;;;;;6193101;23;20228;-88
2021/03/28 14:47:53;;;;;;;12.00;2.22;;;;;;;;;;6192825;23;20175;-89
2021/03/28 14:50:58;;;;;;;8.63;1.95;;;;;;;;;;6173346;23;20176;-89
2021/03/28 14:54:05;;;;;;;4.93;2.10;;;;;;;;;;6190290;23;20220;-88
2021/03/28 14:57:12;;;;;;;6.50;2.30;;;;;;;;;;6191773;23;20186;-88
2021/03/28 15:00:21;;;;;;;8.20;2.45;;;;;;;;;;6193237;23;20667;-89
2021/03/28 15:03:44;;;;;;;5.63;2.05;;;;;;;;;;6175139;23;20172;-89
2021/03/28 15:06:59;;;;;;;8.05;2.10;;;;;;;;;;6175055;23;20628;-88
2021/03/28 15:10:07;;;;;;;8.18;2.13;;;;;;;;;;6193294;23;20172;-91
2021/03/28 15:13:27;;;;;;;5.75;1.83;;;;;;;;;;6191809;23;20549;-88
2021/03/28 15:16:38;;;;;;;5.30;2.17;;;;;;;;;;6198608;23;20219;-87
2021/03/28 15:19:46;;;;;;;5.32;2.20;;;;;;;;;;6191031;23;20244;-87
2021/03/28 15:22:54;;;;;;;5.32;1.58;;;;;;;;;;6192022;23;20263;-89
2021/03/28 15:26:13;;;;;;;6.28;2.03;;;;;;;;;;6192338;23;20199;-88
2021/03/28 15:29:22;;;;;;;6.88;1.98;;;;;;;;;;6193187;23;20227;-89
2021/03/28 15:32:41;;;;;;;4.43;2.00;;;;;;;;;;6193572;23;20205;-89
2021/03/28 15:35:49;;;;;;;24.42;2.00;;;;;;;;;;6192591;23;20156;-89
2021/03/28 15:39:09;;;;;;;5.97;2.42;;;;;;;;;;6192147;23;20176;-89
2021/03/28 15:42:16;;;;;;;8.27;1.90;;;;;;;;;;6159399;23;20223;-89
2021/03/28 15:45:36;;;;;;;4.95;1.77;;;;;;;;;;6193012;23;20227;-88
2021/03/28 15:48:48;;;;;;;8.07;1.70;;;;;;;;;;6191046;23;20179;-89
2021/03/28 15:52:04;;;;;;;5.75;1.90;;;;;;;;;;6192287;23;20203;-87
2021/03/28 15:55:25;;;;;;;5.95;2.15;;;;;;;;;;6190898;23;20184;-89
2021/03/28 15:58:44;;;;;;;6.43;1.75;;;;;;;;;;6190765;23;20200;-89
2021/03/28 16:02:06;;;;;;;8.68;2.08;;;;;;;;;;6193488;23;20196;-88
2021/03/28 16:05:19;;;;;;;10.10;2.28;;;;;;;;;;6208567;23;20173;-89
2021/03/28 16:08:43;;;;;;;7.72;2.10;;;;;;;;;;6208617;23;20200;-87
2021/03/28 16:12:00;;;;;;;6.32;1.98;;;;;;;;;;6192657;23;20192;-88
2021/03/28 16:15:12;;;;;;;9.55;2.40;;;;;;;;;;6193481;23;20187;-88
2021/03/28 16:18:35;;;;;;;8.88;2.60;;;;;;;;;;6192185;23;20176;-88
2021/03/28 16:21:58;;;;;;;7.43;1.92;;;;;;;;;;6173940;23;20196;-88
2021/03/28 16:25:05;;;;;;;6.82;2.15;;;;;;;;;;6190353;23;20223;-90
2021/03/28 16:28:15;;;;;;;9.50;1.92;;;;;;;;;;6191154;23;20171;-88
2021/03/28 16:31:38;;;;;;;8.32;1.95;;;;;;;;;;6172581;23;20168;-89
2021/03/28 16:34:59;;;;;;;11.55;2.58;;;;;;;;;;6190968;23;20171;-88
2021/03/28 16:38:12;;;;;;;6.32;1.77;;;;;;;;;;6191407;23;20175;-90
2021/03/28 16:41:33;;;;;;;7.03;2.00;;;;;;;;;;6192598;23;20239;-88
2021/03/28 16:44:41;;;;;;;5.63;2.08;;;;;;;;;;6192589;23;20608;-89
2021/03/28 16:47:55;;;;;;;9.15;2.88;;;;;;;;;;6191723;23;20200;-88
2021/03/28 16:51:06;;;;;;;13.13;4.80;;;;;;;;;;6192221;23;20183;-89
2021/03/28 16:54:15;;;;;;;13.88;4.20;;;;;;;;;;6192559;23;20551;-88
2021/03/28 16:57:22;;;;;;;12.07;3.72;;;;;;;;;;6195014;23;20172;-89
2021/03/28 17:00:28;;;;;;;8.18;2.83;;;;;;;;;;6191690;23;20175;-90
2021/03/28 17:03:33;;;;;;;8.68;2.25;;;;;;;;;;6190160;23;20164;-90
2021/03/28 17:06:38;;;;;;;10.45;3.63;;;;;;;;;;6190362;23;20255;-88
2021/03/28 17:09:57;;;;;;;20.63;6.93;;;;;;;;;;6192081;23;20208;-87
2021/03/28 17:13:20;;;;;;;17.33;5.70;;;;;;;;;;6191126;23;20167;-88
2021/03/28 17:16:33;;;;;;;13.70;3.40;;;;;;;;;;6195959;23;20238;-91
2021/03/28 17:19:44;;;;;;;15.88;5.35;;;;;;;;;;6190113;23;20684;-88
2021/03/28 17:22:59;;;;;;;10.02;3.08;;;;;;;;;;6189493;23;20248;-88
2021/03/28 17:26:16;;;;;;;13.30;4.80;;;;;;;;;;6190195;23;20552;-90
2021/03/28 17:29:36;;;;;;;12.07;3.58;;;;;;;;;;6196126;23;20270;-88
2021/03/28 17:32:57;;;;;;;12.75;3.90;;;;;;;;;;6203463;23;20159;-90
2021/03/28 17:36:20;;;;;;;10.48;3.85;;;;;;;;;;6203726;23;20192;-89
2021/03/28 17:39:43;;;;;;;12.38;4.47;;;;;;;;;;6191487;23;20175;-89
2021/03/28 17:42:48;;;;;;;17.63;4.70;;;;;;;;;;6207989;23;20191;-89
2021/03/28 17:45:53;;;;;;;35.80;15.70;;;;;;;;;;6191468;23;20187;-89
2021/03/28 17:48:58;;;;;;;74.47;37.13;;;;;;;;;;6191600;23;20686;-88
2021/03/28 17:52:03;;;;;;;26.17;12.77;;;;;;;;;;6191539;23;20687;-90
2021/03/28 17:55:28;;;;;;;30.30;14.38;;;;;;;;;;6191201;23;20175;-88
2021/03/28 17:58:46;;;;;;;13.38;6.00;;;;;;;;;;6171986;23;20211;-88
2021/03/28 18:01:51;;;;;;;13.43;4.82;;;;;;;;;;6191860;23;20243;-90
2021/03/28 18:05:03;;;;;;;21.67;8.38;;;;;;;;;;6190621;23;20172;-88
2021/03/28 18:08:33;;;;;;;10.48;4.20;;;;;;;;;;6192941;23;20176;-91
2021/03/28 18:11:39;;;;;;;13.10;3.90;;;;;;;;;;6195815;23;20238;-89
2021/03/28 18:14:44;;;;;;;13.27;4.22;;;;;;;;;;6192302;23;20663;-88
2021/03/28 18:17:49;;;;;;;16.80;5.70;;;;;;;;;;6191966;23;20747;-88
2021/03/28 18:20:54;;;;;;;14.67;5.03;;;;;;;;;;6191892;23;20204;-88
2021/03/28 18:24:00;;;;;;;12.73;4.70;;;;;;;;;;6209707;23;20219;-88
2021/03/28 18:27:05;;;;;;;10.70;3.50;;;;;;;;;;6192429;23;20187;-88
2021/03/28 18:30:36;;;;;;;15.27;4.80;;;;;;;;;;6196470;23;20176;-89
2021/03/28 18:33:51;;;;;;;11.70;4.23;;;;;;;;;;6195679;23;20611;-88
2021/03/28 18:36:56;;;;;;;14.13;3.73;;;;;;;;;;6194468;23;20171;-90
2021/03/28 18:40:12;;;;;;;15.90;3.70;;;;;;;;;;6195113;23;20497;-88
2021/03/28 18:43:23;;;;;;;13.43;3.67;;;;;;;;;;6196177;23;20163;-88
2021/03/28 18:46:33;;;;;;;11.90;3.40;;;;;;;;;;6214862;23;20176;-86
2021/03/28 18:49:40;;;;;;;10.27;3.83;;;;;;;;;;6197857;23;20253;-89
2021/03/28 18:53:05;;;;;;;12.47;3.47;;;;;;;;;;6212255;23;20163;-89
2021/03/28 18:56:23;;;;;;;13.63;3.30;;;;;;;;;;6196997;23;20251;-89
2021/03/28 18:59:28;;;;;;;8.03;3.53;;;;;;;;;;6213257;23;20179;-90
2021/03/28 19:02:58;;;;;;;12.93;3.63;;;;;;;;;;6196769;23;20191;-89
2021/03/28 19:06:10;;;;;;;17.40;3.50;;;;;;;;;;6197769;23;20207;-87
2021/03/28 19:09:16;;;;;;;11.60;4.47;;;;;;;;;;6196592;23;20176;-89
2021/03/28 19:12:33;;;;;;;9.90;3.97;;;;;;;;;;6198642;23;20183;-88
2021/03/28 19:15:39;;;;;;;11.53;3.57;;;;;;;;;;6202011;23;20243;-87
2021/03/28 19:18:44;;;;;;;11.63;3.57;;;;;;;;;;6177013;23;20175;-90
2021/03/28 19:21:51;;;;;;;7.67;3.30;;;;;;;;;;6194914;23;20188;-88
2021/03/28 19:24:55;;;;;;;12.77;3.50;;;;;;;;;;6192549;23;20215;-88
2021/03/28 19:28:00;;;;;;;13.17;4.57;;;;;;;;;;6194459;23;20230;-90
2021/03/28 19:31:21;;;;;;;12.47;4.47;;;;;;;;;;6176024;23;20196;-88
2021/03/28 19:34:27;;;;;;;17.80;4.20;;;;;;;;;;6193147;23;20195;-87
2021/03/28 19:38:15;;;;;;;14.50;4.87;;;;;;;;;;6192731;23;20168;-89
2021/03/28 19:41:24;;;;;;;15.00;4.60;;;;;;;;;;6195511;23;20526;-89
2021/03/28 19:44:44;;;;;;;14.70;4.33;;;;;;;;;;6181752;23;20227;-88
2021/03/28 19:47:50;;;;;;;13.03;4.00;;;;;;;;;;6194681;23;20168;-89
2021/03/28 19:50:55;;;;;;;12.87;3.93;;;;;;;;;;6195053;23;20215;-88
2021/03/28 19:54:01;;;;;;;12.93;4.30;;;;;;;;;;6194304;23;20560;-87
2021/03/28 19:57:08;;;;;;;14.20;4.20;;;;;;;;;;6180132;23;20199;-89
2021/03/28 20:00:14;;;;;;;14.53;4.60;;;;;;;;;;6198430;23;20495;-89
2021/03/28 20:03:20;;;;;;;11.57;4.20;;;;;;;;;;6195000;23;20160;-88
2021/03/28 20:06:24;;;;;;;13.13;4.03;;;;;;;;;;6197155;23;20223;-91
2021/03/28 20:09:30;;;;;;;12.97;3.87;;;;;;;;;;6194336;23;20172;-89
2021/03/28 22:01:09;;;;;;;9.13;3.40;;;;;;;;;;6179609;22;20227;-88
2021/03/28 22:04:14;;;;;;;16.73;4.23;;;;;;;;;;6220693;23;20171;-89
2021/03/28 22:07:19;;;;;;;10.97;3.47;;;;;;;;;;6204875;23;20271;-89
2021/03/28 22:10:25;;;;;;;14.23;3.57;;;;;;;;;;6222262;23;20266;-87
2021/03/28 22:13:34;;;;;;;15.57;4.83;;;;;;;;;;6221095;23;20194;-87
2021/03/28 22:16:46;;;;;;;11.10;4.07;;;;;;;;;;6221377;23;20665;-89
2021/03/28 22:19:51;;;;;;;13.07;4.23;;;;;;;;;;6221367;23;20183;-88
2021/03/28 22:23:01;;;;;;;10.20;3.97;;;;;;;;;;6204312;23;20195;-90
2021/03/28 22:26:06;;;;;;;12.20;4.27;;;;;;;;;;6221723;23;20218;-89
2021/03/28 22:29:11;;;;;;;13.90;3.90;;;;;;;;;;6222163;23;20222;-89
2021/03/28 22:32:18;;;;;;;16.73;4.40;;;;;;;;;;6222317;23;20190;-89
2021/03/28 22:35:23;;;;;;;11.53;4.00;;;;;;;;;;6221661;23;20214;-87
2021/03/28 22:38:27;;;;;;;12.60;4.10;;;;;;;;;;6221162;23;20258;-88
2021/03/28 22:41:34;;;;;;;12.83;3.90;;;;;;;;;;6221420;23;20198;-86
2021/03/28 22:44:38;;;;;;;10.97;4.73;;;;;;;;;;6204164;23;20170;-89
2021/03/28 22:47:45;;;;;;;9.70;4.20;;;;;;;;;;6221605;23;20218;-89
2021/03/28 22:50:50;;;;;;;16.70;4.27;;;;;;;;;;6220599;23;20630;-87
2021/03/28 22:54:02;;;;;;;11.27;3.90;;;;;;;;;;6203470;23;20195;-87
2021/03/28 22:57:08;;;;;;;11.50;4.37;;;;;;;;;;6202976;23;20634;-89
2021/03/28 23:00:14;;;;;;;12.13;3.90;;;;;;;;;;6203413;23;20171;-90
2021/03/28 23:03:20;;;;;;;12.00;3.90;;;;;;;;;;6221382;23;20618;-86
2021/03/28 23:06:25;;;;;;;11.17;3.73;;;;;;;;;;6220062;23;20199;-89
2021/03/28 23:09:29;;;;;;;9.80;3.73;;;;;;;;;;6203809;23;20222;-89
2021/03/28 23:12:34;;;;;;;10.63;3.67;;;;;;;;;;6220302;23;20240;-89
2021/03/28 23:15:40;;;;;;;11.57;3.53;;;;;;;;;;6219781;23;20244;-90
2021/03/28 23:18:45;;;;;;;11.57;3.60;;;;;;;;;;6221562;23;20171;-89
2021/03/28 23:21:53;;;;;;;12.63;3.53;;;;;;;;;;6220610;23;20226;-89
2021/03/28 23:24:58;;;;;;;11.67;3.70;;;;;;;;;;6220822;23;20174;-88
2021/03/28 23:28:02;;;;;;;13.37;4.10;;;;;;;;;;6222216;23;20175;-90
2021/03/28 23:31:07;;;;;;;11.17;3.60;;;;;;;;;;6220534;23;20247;-88
2021/03/28 23:34:14;;;;;;;10.03;3.70;;;;;;;;;;6220117;23;20198;-88
2021/03/28 23:37:19;;;;;;;11.00;3.27;;;;;;;;;;6220220;23;20175;-89
2021/03/28 23:40:24;;;;;;;11.70;3.77;;;;;;;;;;6221150;23;20175;-87
2021/03/28 23:43:29;;;;;;;8.00;3.40;;;;;;;;;;6203443;23;20166;-88
2021/03/28 23:46:35;;;;;;;9.33;3.47;;;;;;;;;;6220227;23;20243;-87
2021/03/28 23:49:44;;;;;;;11.87;3.60;;;;;;;;;;6220748;23;20178;-89
2021/03/28 23:52:53;;;;;;;12.90;4.27;;;;;;;;;;6220820;23;20240;-88
2021/03/28 23:55:58;;;;;;;13.77;4.00;;;;;;;;;;6219244;23;20676;-90
2021/03/28 23:59:03;;;;;;;17.67;3.77;;;;;;;;;;6220148;23;20167;-88
